Time;durP1;ratioP1;P1;durP2;ratioP2;P2;SDS_P1;SDS_P2;PMS_P1;PMS_P2;Temp;Humidity;BMP_temperature;BMP_pressure;BME280_temperature;BME280_humidity;BME280_pressure;Samples;Min_cycle;Max_cycle;Signal;HPM_P1;HPM_P2
2021/10/23 00:00:00;;;;;;;6.60;5.00;;;;;;;19.34;41.89;99384.02;1811955;77;21112;-60
2021/10/23 00:02:26;;;;;;;8.18;5.12;;;;;;;19.34;41.89;99379.98;1815103;77;21001;-61
2021/10/23 00:04:55;;;;;;;6.37;4.72;;;;;;;19.32;41.93;99376.70;1825497;77;20934;-61
2021/10/23 00:07:22;;;;;;;7.25;4.90;;;;;;;19.32;41.95;99383.44;1843433;77;21020;-60
2021/10/23 00:09:50;;;;;;;7.12;5.00;;;;;;;19.32;41.93;99384.78;1854091;77;21044;-60
2021/10/23 00:12:18;;;;;;;6.22;4.80;;;;;;;19.31;42.00;99381.79;1835708;77;20963;-60
2021/10/23 00:14:44;;;;;;;6.00;5.00;;;;;;;19.30;41.88;99378.00;1793308;77;20996;-61
2021/10/23 00:17:11;;;;;;;5.78;4.55;;;;;;;19.29;41.94;99377.16;1797046;77;21076;-62
2021/10/23 00:19:37;;;;;;;6.03;4.83;;;;;;;19.29;42.01;99374.47;1839919;77;21649;-60
2021/10/23 00:22:05;;;;;;;5.65;5.05;;;;;;;19.28;41.92;99359.38;1823085;77;21043;-61
2021/10/23 00:24:35;;;;;;;5.60;4.50;;;;;;;19.27;41.93;99364.46;1824952;77;21123;-60
2021/10/23 00:27:01;;;;;;;5.58;5.03;;;;;;;19.27;41.90;99358.27;1807467;77;21467;-61
2021/10/23 00:29:29;;;;;;;6.97;5.00;;;;;;;19.25;42.03;99352.57;1839430;77;21006;-60
2021/10/23 00:31:56;;;;;;;6.17;4.60;;;;;;;19.24;41.88;99356.33;1821466;77;21020;-60
2021/10/23 00:34:22;;;;;;;5.25;4.40;;;;;;;19.24;41.94;99355.52;1819896;77;21258;-61
2021/10/23 00:36:50;;;;;;;5.97;4.62;;;;;;;19.22;41.90;99349.02;1843107;77;21547;-60
2021/10/23 00:39:17;;;;;;;5.08;4.58;;;;;;;19.22;41.93;99342.82;1849562;77;21010;-60
2021/10/23 00:41:43;;;;;;;6.80;4.95;;;;;;;19.22;41.90;99354.94;1842722;77;21013;-61
2021/10/23 00:44:33;;;;;;;7.05;4.97;;;;;;;19.21;41.92;99347.37;1834741;77;21044;-60
2021/10/23 00:47:04;;;;;;;5.05;4.47;;;;;;;19.19;41.96;99353.52;1832044;77;21001;-60
2021/10/23 00:49:31;;;;;;;5.90;4.72;;;;;;;19.18;41.97;99357.27;1853027;77;21164;-61
2021/10/23 00:51:58;;;;;;;6.53;4.75;;;;;;;19.17;41.92;99361.54;1839963;77;21655;-61
2021/10/23 00:54:26;;;;;;;5.80;4.53;;;;;;;19.15;41.94;99356.38;1797933;77;21476;-61
2021/10/23 00:56:54;;;;;;;4.97;4.50;;;;;;;19.14;41.86;99356.11;1832452;77;21043;-63
2021/10/23 00:59:21;;;;;;;9.00;5.17;;;;;;;19.14;41.96;99366.03;1856638;77;21028;-61
2021/10/23 01:01:51;;;;;;;5.40;4.80;;;;;;;19.14;41.97;99367.38;1857096;77;21946;-60
2021/10/23 01:04:19;;;;;;;5.37;4.47;;;;;;;19.13;41.97;99368.45;1826807;77;21593;-60
2021/10/23 01:06:46;;;;;;;5.80;4.70;;;;;;;19.11;41.95;99362.48;1825548;77;21025;-61
2021/10/23 01:09:13;;;;;;;4.67;4.03;;;;;;;19.10;41.92;99359.48;1832899;77;21559;-62
2021/10/23 01:11:41;;;;;;;5.00;3.92;;;;;;;19.09;41.89;99363.24;1831092;77;21553;-61
2021/10/23 01:14:23;;;;;;;5.45;4.40;;;;;;;19.07;41.91;99361.31;1825440;77;21211;-61
2021/10/23 01:16:52;;;;;;;7.33;4.42;;;;;;;19.05;41.86;99366.92;1826713;77;21162;-60
2021/10/23 01:19:19;;;;;;;6.92;4.60;;;;;;;19.04;41.86;99358.03;1825484;77;21040;-61
2021/10/23 01:21:48;;;;;;;5.70;4.72;;;;;;;19.03;41.91;99363.64;1809979;77;21036;-61
2021/10/23 01:24:14;;;;;;;5.08;4.28;;;;;;;19.02;41.98;99368.19;1823752;77;21092;-60
2021/10/23 01:26:41;;;;;;;4.83;4.03;;;;;;;19.00;42.00;99365.44;1825225;77;21156;-60
2021/10/23 01:29:11;;;;;;;5.60;4.60;;;;;;;18.98;41.94;99371.05;1825446;77;21045;-61
2021/10/23 01:31:37;;;;;;;5.67;4.90;;;;;;;18.98;41.94;99374.28;1823990;77;21061;-60
2021/10/23 01:34:19;;;;;;;5.50;4.30;;;;;;;18.97;41.94;99376.69;1831532;77;21568;-59
2021/10/23 01:36:48;;;;;;;5.97;4.58;;;;;;;18.96;41.85;99366.97;1819831;77;21524;-60
2021/10/23 01:39:15;;;;;;;5.50;4.67;;;;;;;18.94;41.88;99374.45;1808128;78;21108;-59
2021/10/23 01:41:43;;;;;;;5.50;4.67;;;;;;;18.92;41.87;99362.56;1819738;77;21052;-63
2021/10/23 01:44:10;;;;;;;7.12;4.20;;;;;;;18.91;41.89;99362.28;1825583;78;21072;-60
2021/10/23 01:46:37;;;;;;;7.22;4.80;;;;;;;18.91;41.99;99365.48;1825665;78;21021;-60
2021/10/23 01:49:05;;;;;;;5.40;4.90;;;;;;;18.89;41.92;99363.55;1823602;77;21061;-61
2021/10/23 01:51:33;;;;;;;5.53;4.75;;;;;;;18.88;41.83;99367.31;1811935;77;21115;-62
2021/10/23 01:54:08;;;;;;;6.08;4.50;;;;;;;18.88;41.88;99364.62;1817178;77;21541;-59
2021/10/23 01:56:37;;;;;;;7.15;5.08;;;;;;;18.85;41.88;99364.53;1810528;77;21110;-61
2021/10/23 01:59:03;;;;;;;6.03;5.17;;;;;;;18.84;41.84;99363.72;1821258;78;21024;-61
2021/10/23 02:01:31;;;;;;;6.28;4.67;;;;;;;18.83;41.82;99362.09;1805526;77;21757;-62
2021/10/23 02:03:58;;;;;;;6.67;5.15;;;;;;;18.81;41.91;99368.24;1776482;78;21144;-62
2021/10/23 02:06:24;;;;;;;6.12;4.47;;;;;;;18.80;41.86;99369.28;1759429;80;21081;-61
2021/10/23 02:08:51;;;;;;;6.40;5.12;;;;;;;18.80;41.85;99368.46;1761045;79;21139;-61
2021/10/23 02:11:17;;;;;;;5.83;4.65;;;;;;;18.78;41.82;99366.50;1768421;78;21056;-61
2021/10/23 02:13:43;;;;;;;5.67;4.40;;;;;;;18.76;41.82;99363.22;1768733;78;21065;-61
2021/10/23 02:16:10;;;;;;;5.60;5.00;;;;;;;18.75;41.84;99359.69;1771311;79;21113;-60
2021/10/23 02:18:36;;;;;;;5.50;4.62;;;;;;;18.74;41.85;99361.29;1777906;78;21039;-60
2021/10/23 02:21:05;;;;;;;5.97;4.50;;;;;;;18.73;41.88;99356.95;1779300;78;21779;-60
2021/10/23 02:23:32;;;;;;;5.42;4.37;;;;;;;18.71;41.92;99358.52;1765479;78;21353;-60
2021/10/23 02:25:59;;;;;;;5.90;4.50;;;;;;;18.71;41.88;99364.42;1776267;78;21041;-60
2021/10/23 02:28:25;;;;;;;5.75;4.67;;;;;;;18.70;41.80;99356.05;1790638;78;21144;-61
2021/10/23 02:30:52;;;;;;;8.10;5.00;;;;;;;18.67;41.88;99354.11;1773843;80;20985;-62
2021/10/23 02:33:19;;;;;;;5.90;5.03;;;;;;;18.67;41.92;99359.50;1769153;78;21005;-62
2021/10/23 02:35:46;;;;;;;5.15;4.25;;;;;;;18.66;41.94;99368.63;1769593;80;21064;-60
2021/10/23 02:38:12;;;;;;;5.78;4.25;;;;;;;18.65;42.00;99369.67;1768657;78;21056;-60
2021/10/23 02:40:39;;;;;;;5.45;4.30;;;;;;;18.64;42.00;99368.05;1775150;78;21146;-61
2021/10/23 02:43:06;;;;;;;5.65;4.08;;;;;;;18.64;42.00;99373.42;1769274;78;21466;-60
2021/10/23 02:45:32;;;;;;;5.65;4.37;;;;;;;18.61;42.07;99367.15;1754561;78;21077;-61
2021/10/23 02:47:58;;;;;;;5.40;4.30;;;;;;;18.61;41.92;99376.56;1772992;78;21020;-61
2021/10/23 02:50:25;;;;;;;5.75;4.50;;;;;;;18.60;41.95;99382.17;1764499;78;21052;-62
2021/10/23 02:52:53;;;;;;;5.78;4.35;;;;;;;18.59;41.88;99389.42;1770273;78;21807;-61
2021/10/23 02:55:21;;;;;;;5.20;4.20;;;;;;;18.57;41.96;99378.08;1754404;78;21044;-61
2021/10/23 02:57:48;;;;;;;7.10;5.10;;;;;;;18.57;41.89;99379.95;1766150;78;21049;-60
2021/10/23 03:00:15;;;;;;;5.53;4.42;;;;;;;18.55;41.94;99384.74;1766890;79;21035;-60
2021/10/23 03:02:43;;;;;;;6.05;4.80;;;;;;;18.53;41.88;99393.03;1776254;78;21035;-60
2021/10/23 03:05:10;;;;;;;7.30;4.28;;;;;;;18.52;41.86;99384.66;1780886;79;21128;-61
2021/10/23 03:07:36;;;;;;;6.53;4.75;;;;;;;18.52;41.89;99389.22;1771938;78;21626;-63
2021/10/23 03:10:05;;;;;;;6.03;4.55;;;;;;;18.45;41.80;99373.19;1764291;79;21579;-61
2021/10/23 03:12:31;;;;;;;4.97;4.42;;;;;;;18.48;41.91;99380.78;1758429;78;21079;-60
2021/10/23 03:15:01;;;;;;;5.37;4.15;;;;;;;18.47;41.89;99375.94;1800869;78;21059;-61
2021/10/23 03:17:28;;;;;;;5.50;4.33;;;;;;;18.47;41.86;99379.16;1755887;78;22012;-61
2021/10/23 03:19:56;;;;;;;6.75;4.90;;;;;;;18.45;41.86;99381.27;1753683;78;21032;-61
2021/10/23 03:22:23;;;;;;;7.53;5.05;;;;;;;18.44;41.93;99387.67;1773048;78;21548;-61
2021/10/23 03:24:49;;;;;;;6.72;4.30;;;;;;;18.42;41.88;99386.55;1773094;78;21607;-60
2021/10/23 03:27:21;;;;;;;4.87;4.28;;;;;;;18.41;41.89;99382.23;1757433;78;21559;-60
2021/10/23 03:29:47;;;;;;;5.30;4.45;;;;;;;18.42;42.00;99389.77;1747951;78;21113;-60
2021/10/23 03:32:14;;;;;;;4.80;4.22;;;;;;;18.39;41.98;99372.77;1772607;78;21112;-60
2021/10/23 03:34:41;;;;;;;7.60;4.92;;;;;;;18.38;41.95;99365.20;1773238;78;21059;-61
2021/10/23 03:37:07;;;;;;;6.45;4.92;;;;;;;18.38;41.94;99376.48;1771297;78;21040;-60
2021/10/23 03:39:34;;;;;;;6.03;4.10;;;;;;;18.37;41.95;99374.83;1772319;78;21548;-61
2021/10/23 03:42:01;;;;;;;4.85;4.00;;;;;;;18.37;41.99;99373.48;1752220;78;21188;-61
2021/10/23 03:44:27;;;;;;;7.28;4.65;;;;;;;18.35;42.04;99371.55;1771970;79;21508;-60
2021/10/23 03:46:54;;;;;;;5.40;4.50;;;;;;;18.35;42.02;99387.69;1772289;78;21579;-61
2021/10/23 03:49:20;;;;;;;6.08;4.12;;;;;;;18.33;41.99;99381.22;1773026;78;21132;-61
2021/10/23 03:51:46;;;;;;;5.83;4.15;;;;;;;18.33;42.03;99383.06;1758030;78;21087;-60
2021/10/23 03:54:14;;;;;;;5.12;3.98;;;;;;;18.32;42.00;99385.47;1770175;78;21096;-60
2021/10/23 03:56:41;;;;;;;4.85;4.12;;;;;;;18.30;42.04;99375.47;1740900;79;21032;-62
2021/10/23 03:59:07;;;;;;;5.35;4.00;;;;;;;18.31;42.03;99383.82;1777335;78;21050;-60
2021/10/23 04:01:34;;;;;;;5.08;4.33;;;;;;;18.29;42.10;99378.66;1765635;79;21005;-61
2021/10/23 04:04:00;;;;;;;5.08;4.15;;;;;;;18.28;42.02;99371.13;1790198;78;21096;-60
2021/10/23 04:06:26;;;;;;;5.03;4.15;;;;;;;18.27;42.05;99375.38;1782523;78;21101;-61
2021/10/23 04:08:54;;;;;;;4.83;4.05;;;;;;;18.26;42.06;99386.67;1816436;78;21593;-61
2021/10/23 04:11:22;;;;;;;6.17;4.37;;;;;;;18.26;41.99;99388.02;1792271;78;21560;-62
2021/10/23 04:13:50;;;;;;;5.72;4.90;;;;;;;18.24;42.09;99387.95;1811187;78;21025;-61
2021/10/23 04:16:18;;;;;;;4.87;3.90;;;;;;;18.23;42.09;99388.48;1804038;78;21068;-61
2021/10/23 04:18:45;;;;;;;5.03;4.33;;;;;;;18.23;42.13;99388.98;1800234;78;21088;-61
2021/10/23 04:21:13;;;;;;;4.95;4.10;;;;;;;18.22;42.17;99384.67;1809758;78;21057;-60
2021/10/23 04:23:40;;;;;;;5.12;4.37;;;;;;;18.20;42.08;99386.23;1772100;79;21039;-62
2021/10/23 04:26:07;;;;;;;4.83;3.92;;;;;;;18.19;42.06;99391.30;1777475;80;21041;-61
2021/10/23 04:28:33;;;;;;;6.17;4.50;;;;;;;18.18;42.07;99389.67;1742350;81;21032;-60
2021/10/23 04:31:01;;;;;;;5.35;3.80;;;;;;;18.17;42.14;99389.37;1794368;79;21516;-60
2021/10/23 04:33:29;;;;;;;4.53;3.95;;;;;;;18.16;42.20;99390.96;1764315;80;21057;-61
2021/10/23 04:35:56;;;;;;;6.55;4.28;;;;;;;18.15;42.17;99386.09;1771943;79;21005;-60
2021/10/23 04:38:22;;;;;;;5.75;4.45;;;;;;;18.14;42.15;99392.52;1778832;79;21122;-62
2021/10/23 04:40:48;;;;;;;4.42;3.98;;;;;;;18.13;42.19;99404.31;1789376;78;21106;-60
2021/10/23 04:43:15;;;;;;;5.22;4.20;;;;;;;18.14;42.14;99402.44;1776710;78;21809;-61
2021/10/23 04:45:43;;;;;;;8.48;4.45;;;;;;;18.11;42.02;99409.09;1784201;78;21034;-60
2021/10/23 04:48:09;;;;;;;6.10;4.65;;;;;;;18.10;42.11;99403.44;1805369;78;21041;-60
2021/10/23 04:50:37;;;;;;;6.40;4.40;;;;;;;18.09;42.05;99412.53;1782448;78;21040;-61
2021/10/23 04:53:03;;;;;;;5.80;4.37;;;;;;;18.09;42.11;99417.91;1780472;78;21044;-62
2021/10/23 04:55:30;;;;;;;5.97;4.22;;;;;;;18.08;42.06;99414.94;1772120;79;21118;-62
2021/10/23 04:57:57;;;;;;;5.15;3.98;;;;;;;18.07;42.00;99418.12;1744662;80;21066;-60
2021/10/23 05:00:25;;;;;;;6.20;4.40;;;;;;;18.06;42.07;99425.09;1774340;80;21061;-61
2021/10/23 05:02:51;;;;;;;5.62;4.30;;;;;;;18.07;42.15;99421.34;1764488;80;21046;-59
2021/10/23 05:05:18;;;;;;;6.12;4.10;;;;;;;18.06;42.13;99428.59;1766639;80;21644;-62
2021/10/23 05:07:44;;;;;;;6.17;4.37;;;;;;;18.05;42.07;99432.84;1759140;80;21153;-61
2021/10/23 05:10:15;;;;;;;5.92;4.12;;;;;;;18.04;42.02;99425.31;1768510;80;21064;-63
2021/10/23 05:12:42;;;;;;;5.17;3.87;;;;;;;18.05;42.07;99427.47;1771022;79;21513;-61
2021/10/23 05:15:10;;;;;;;5.37;4.37;;;;;;;18.04;42.07;99436.06;1773230;79;21492;-61
2021/10/23 05:17:36;;;;;;;6.83;4.28;;;;;;;18.03;42.06;99434.41;1772610;80;21073;-61
2021/10/23 05:20:06;;;;;;;4.85;3.35;;;;;;;18.03;42.06;99436.28;1782554;79;21076;-60
2021/10/23 05:22:34;;;;;;;4.28;3.80;;;;;;;18.03;42.14;99434.41;1769565;79;21021;-61
2021/10/23 05:25:00;;;;;;;4.55;3.52;;;;;;;18.03;42.15;99429.03;1766638;80;21112;-61
2021/10/23 05:27:26;;;;;;;6.10;4.22;;;;;;;18.03;42.12;99438.97;1775980;80;21545;-61
2021/10/23 05:29:53;;;;;;;4.85;4.28;;;;;;;18.04;42.17;99442.78;1761838;80;21544;-61
2021/10/23 05:32:19;;;;;;;4.62;4.05;;;;;;;18.03;42.07;99449.19;1769917;80;21151;-61
2021/10/23 05:34:46;;;;;;;5.03;3.87;;;;;;;18.04;42.04;99450.00;1765788;80;21469;-60
2021/10/23 05:37:12;;;;;;;7.28;3.85;;;;;;;18.05;42.04;99457.03;1773039;80;21045;-61
2021/10/23 05:39:38;;;;;;;3.90;3.47;;;;;;;18.05;42.01;99459.72;1766116;79;21570;-61
2021/10/23 05:42:05;;;;;;;3.75;3.30;;;;;;;18.06;42.04;99454.66;1766298;79;21544;-62
2021/10/23 05:44:33;;;;;;;5.67;4.40;;;;;;;18.06;41.96;99462.72;1770559;80;21111;-61
2021/10/23 05:46:59;;;;;;;4.85;3.72;;;;;;;18.07;41.99;99461.13;1768966;80;21012;-61
2021/10/23 05:49:26;;;;;;;5.08;3.60;;;;;;;18.08;41.95;99463.31;1814602;78;21071;-60
2021/10/23 05:51:54;;;;;;;5.85;3.70;;;;;;;18.07;41.99;99466.51;1759342;80;21068;-60
2021/10/23 05:54:21;;;;;;;4.50;3.62;;;;;;;18.08;41.95;99466.82;1773922;78;21081;-61
2021/10/23 05:56:49;;;;;;;4.60;4.12;;;;;;;18.10;41.98;99463.07;1783345;80;21189;-61
2021/10/23 05:59:15;;;;;;;5.55;4.33;;;;;;;18.11;41.97;99475.48;1792332;78;21599;-63
2021/10/23 06:01:44;;;;;;;4.75;3.40;;;;;;;18.12;41.92;99480.64;1780965;79;21003;-61
2021/10/23 06:04:11;;;;;;;4.60;3.67;;;;;;;18.13;42.04;99480.11;1761559;79;21561;-61
2021/10/23 06:06:39;;;;;;;4.92;3.65;;;;;;;18.14;41.96;99476.36;1782880;80;21087;-63
2021/10/23 06:09:05;;;;;;;5.53;3.65;;;;;;;18.15;41.98;99491.45;1770884;79;21139;-61
2021/10/23 06:11:32;;;;;;;4.35;3.65;;;;;;;18.15;41.92;99489.58;1774191;79;21604;-61
2021/10/23 06:13:59;;;;;;;5.42;3.70;;;;;;;18.17;41.87;99489.37;1779018;79;21013;-61
2021/10/23 06:16:26;;;;;;;4.58;3.65;;;;;;;18.17;41.93;99483.98;1777769;79;21092;-62
2021/10/23 06:18:54;;;;;;;4.50;3.62;;;;;;;18.18;41.87;99493.71;1777388;79;21272;-61
2021/10/23 06:21:22;;;;;;;4.25;3.40;;;;;;;18.19;41.90;99506.91;1774977;79;21032;-61
2021/10/23 06:23:48;;;;;;;3.95;3.55;;;;;;;18.20;41.87;99505.06;1780854;79;21040;-62
2021/10/23 06:26:15;;;;;;;4.33;3.65;;;;;;;18.21;41.77;99504.00;1779929;79;21100;-62
2021/10/23 06:28:41;;;;;;;5.25;3.75;;;;;;;18.22;41.70;99506.47;1767174;79;21036;-61
2021/10/23 06:31:09;;;;;;;5.47;4.00;;;;;;;18.24;41.68;99501.69;1773596;79;21553;-62
2021/10/23 06:33:37;;;;;;;4.53;3.40;;;;;;;18.25;41.71;99502.00;1768744;80;21021;-61
2021/10/23 06:36:04;;;;;;;4.90;4.00;;;;;;;18.26;41.63;99502.81;1770057;80;21056;-61
2021/10/23 06:38:30;;;;;;;4.97;4.22;;;;;;;18.26;41.58;99498.25;1769739;79;21057;-61
2021/10/23 06:40:58;;;;;;;5.03;3.98;;;;;;;18.28;41.55;99507.44;1768141;80;21030;-61
2021/10/23 06:43:25;;;;;;;4.50;3.70;;;;;;;18.30;41.55;99500.50;1752468;80;21116;-60
2021/10/23 06:45:52;;;;;;;5.55;3.10;;;;;;;18.30;41.53;99514.77;1762562;80;21107;-61
2021/10/23 06:48:18;;;;;;;5.00;3.67;;;;;;;18.31;41.50;99508.35;1762413;79;21049;-61
2021/10/23 06:50:46;;;;;;;4.58;3.52;;;;;;;18.32;41.44;99510.52;1776438;79;21045;-62
2021/10/23 06:53:13;;;;;;;4.05;3.35;;;;;;;18.35;41.46;99514.08;1770212;79;21044;-61
2021/10/23 06:55:40;;;;;;;4.50;3.47;;;;;;;18.36;41.46;99510.36;1788309;79;21014;-60
2021/10/23 06:58:06;;;;;;;5.00;3.60;;;;;;;18.36;41.43;99508.48;1751496;80;21120;-62
2021/10/23 07:00:32;;;;;;;3.42;3.08;;;;;;;18.38;41.45;99506.91;1753569;80;21055;-61
2021/10/23 07:02:59;;;;;;;5.62;3.62;;;;;;;18.40;41.36;99508.86;1744955;80;21009;-63
2021/10/23 07:05:28;;;;;;;3.95;3.55;;;;;;;18.40;41.35;99509.67;1752858;81;21557;-62
2021/10/23 07:07:55;;;;;;;4.87;3.15;;;;;;;18.41;41.34;99518.05;1759022;80;21012;-61
2021/10/23 07:10:21;;;;;;;3.77;3.25;;;;;;;18.43;41.29;99513.27;1746131;80;21071;-61
2021/10/23 07:12:51;;;;;;;4.28;3.30;;;;;;;18.44;41.32;99518.92;1736923;80;21083;-61
2021/10/23 07:15:18;;;;;;;5.58;4.05;;;;;;;18.46;41.28;99519.52;1754438;80;21051;-60
2021/10/23 07:17:46;;;;;;;4.92;3.50;;;;;;;18.47;41.27;99522.52;1761811;81;21064;-62
2021/10/23 07:20:13;;;;;;;4.53;3.35;;;;;;;18.50;41.26;99529.84;1745042;80;21076;-62
2021/10/23 07:22:41;;;;;;;4.05;3.58;;;;;;;18.51;41.26;99530.16;1754161;80;21155;-62
2021/10/23 07:25:08;;;;;;;5.35;3.80;;;;;;;18.52;41.24;99533.94;1727284;80;21000;-62
2021/10/23 07:27:35;;;;;;;4.97;3.15;;;;;;;18.54;41.21;99535.87;1724927;81;21604;-62
2021/10/23 07:30:02;;;;;;;4.30;3.45;;;;;;;18.56;41.19;99534.31;1753872;80;21039;-62
2021/10/23 07:32:29;;;;;;;4.20;3.50;;;;;;;18.57;41.18;99530.06;1749540;80;21055;-62
2021/10/23 07:34:55;;;;;;;4.03;3.37;;;;;;;18.59;41.15;99533.88;1722495;81;21134;-62
2021/10/23 07:37:22;;;;;;;4.10;3.62;;;;;;;18.60;41.11;99530.97;1708392;81;21026;-61
2021/10/23 07:39:50;;;;;;;5.12;3.65;;;;;;;18.62;41.06;99538.29;1719117;80;21030;-62
2021/10/23 07:42:16;;;;;;;4.50;3.60;;;;;;;18.65;41.04;99541.05;1756373;80;21634;-60
2021/10/23 07:44:42;;;;;;;4.62;3.12;;;;;;;18.67;41.02;99540.29;1754478;80;21047;-64
2021/10/23 07:47:11;;;;;;;3.83;3.12;;;;;;;18.69;41.02;99544.11;1725240;81;21149;-63
2021/10/23 07:49:40;;;;;;;4.17;2.92;;;;;;;18.71;41.00;99550.08;1745628;80;21012;-61
2021/10/23 07:52:06;;;;;;;6.03;3.35;;;;;;;18.74;40.99;99549.11;1737536;80;21066;-62
2021/10/23 07:54:34;;;;;;;4.12;3.20;;;;;;;18.77;41.03;99549.98;1744894;80;21048;-61
2021/10/23 07:57:02;;;;;;;4.12;3.30;;;;;;;18.80;41.04;99544.19;1735187;80;21052;-62
2021/10/23 07:59:29;;;;;;;4.15;3.37;;;;;;;18.84;41.04;99547.25;1787244;79;21935;-61
2021/10/23 08:02:00;;;;;;;3.90;3.50;;;;;;;18.87;41.05;99549.48;1805203;78;21006;-62
2021/10/23 08:04:28;;;;;;;3.87;3.22;;;;;;;18.93;41.03;99567.44;1798359;78;21046;-62
2021/10/23 08:06:59;;;;;;;3.90;3.27;;;;;;;18.97;41.08;99563.23;1810749;78;21040;-62
2021/10/23 08:09:29;;;;;;;4.65;3.50;;;;;;;19.01;41.13;99576.53;1786682;78;21542;-61
2021/10/23 08:11:57;;;;;;;4.15;2.98;;;;;;;19.05;41.17;99573.68;1763555;78;21104;-61
2021/10/23 08:14:24;;;;;;;4.55;3.65;;;;;;;19.12;41.12;99583.53;1797542;78;21009;-63
2021/10/23 08:16:51;;;;;;;3.30;2.92;;;;;;;19.17;41.04;99589.06;1794032;78;21040;-61
2021/10/23 08:19:20;;;;;;;3.60;3.22;;;;;;;19.22;40.99;99594.59;1762071;80;21029;-60
2021/10/23 08:21:47;;;;;;;5.53;2.95;;;;;;;19.27;40.87;99593.90;1785642;78;21130;-61
2021/10/23 08:24:14;;;;;;;4.20;3.52;;;;;;;19.32;40.76;99590.00;1782113;78;21053;-62
2021/10/23 08:26:41;;;;;;;3.55;2.92;;;;;;;19.37;40.72;99603.09;1767931;79;21667;-62
2021/10/23 08:29:08;;;;;;;3.35;3.02;;;;;;;19.42;40.76;99607.23;1791757;78;21048;-62
2021/10/23 08:31:36;;;;;;;4.42;3.42;;;;;;;19.47;40.77;99606.57;1787267;78;21021;-64
2021/10/23 08:34:02;;;;;;;4.20;3.12;;;;;;;19.53;40.77;99624.50;1779977;79;21029;-62
2021/10/23 08:36:29;;;;;;;4.40;3.25;;;;;;;19.57;40.68;99620.83;1764887;79;21263;-63
2021/10/23 08:38:57;;;;;;;4.20;2.90;;;;;;;19.62;40.68;99616.89;1764887;79;21024;-62
2021/10/23 08:41:25;;;;;;;3.30;2.92;;;;;;;19.67;40.59;99617.58;1758243;81;21562;-62
2021/10/23 08:43:52;;;;;;;3.85;2.98;;;;;;;19.71;40.57;99622.26;1757448;79;21605;-64
2021/10/23 08:46:22;;;;;;;3.65;2.90;;;;;;;19.78;40.61;99620.83;1753990;79;21051;-62
2021/10/23 08:48:53;;;;;;;4.92;3.25;;;;;;;19.82;40.52;99633.63;1753911;79;21085;-61
2021/10/23 08:51:21;;;;;;;3.67;3.27;;;;;;;19.88;40.63;99631.88;1765182;80;21116;-62
2021/10/23 08:53:49;;;;;;;4.65;3.45;;;;;;;19.93;40.54;99626.59;1766837;79;21072;-62
2021/10/23 08:56:16;;;;;;;5.00;3.10;;;;;;;19.98;40.70;99632.12;1764594;79;21652;-62
2021/10/23 08:58:43;;;;;;;4.10;3.20;;;;;;;20.06;40.64;99642.28;1775768;79;21071;-72
2021/10/23 09:01:12;;;;;;;4.67;3.27;;;;;;;20.12;40.55;99637.30;1766388;79;21143;-74
2021/10/23 09:03:43;;;;;;;4.05;2.90;;;;;;;20.16;40.75;99637.94;1770065;79;21095;-70
2021/10/23 09:06:38;;;;;;;3.67;2.77;;;;;;;20.21;40.42;99634.02;1820600;78;22050;-72
2021/10/23 09:09:14;;;;;;;3.92;3.12;;;;;;;20.27;40.25;99642.24;1764726;80;21013;-63
2021/10/23 09:11:48;;;;;;;3.17;2.80;;;;;;;20.31;40.15;99641.52;1732943;80;21050;-71
2021/10/23 09:14:28;;;;;;;4.03;3.40;;;;;;;20.36;40.13;99650.28;1766592;80;21049;-70
2021/10/23 09:17:08;;;;;;;2.62;2.20;;;;;;;20.40;40.22;99646.05;1773211;80;21081;-72
2021/10/23 09:19:45;;;;;;;3.25;2.92;;;;;;;20.46;40.09;99648.34;1772676;80;21517;-72
2021/10/23 09:22:32;;;;;;;3.05;2.75;;;;;;;20.50;40.10;99653.02;1772757;80;21538;-71
2021/10/23 09:25:26;;;;;;;3.22;2.80;;;;;;;20.56;40.17;99651.27;1772514;80;21081;-71
2021/10/23 09:28:18;;;;;;;4.75;2.72;;;;;;;20.60;39.91;99644.36;1780629;80;22023;-71
2021/10/23 09:30:49;;;;;;;3.60;3.30;;;;;;;20.66;39.83;99637.20;1817894;78;21034;-71
2021/10/23 09:33:20;;;;;;;3.10;2.80;;;;;;;20.69;39.96;99631.34;1809530;78;21080;-72
2021/10/23 09:36:00;;;;;;;3.62;3.25;;;;;;;20.73;39.96;99637.91;1767792;78;21073;-72
2021/10/23 09:38:33;;;;;;;3.85;2.83;;;;;;;20.78;39.78;99646.09;1771623;80;21553;-72
2021/10/23 09:41:14;;;;;;;3.62;3.10;;;;;;;20.84;39.77;99648.38;1755344;80;21823;-61
2021/10/23 09:43:41;;;;;;;4.15;2.95;;;;;;;20.77;39.70;99630.97;1773056;79;21012;-61
2021/10/23 09:46:11;;;;;;;3.05;2.75;;;;;;;20.90;39.73;99660.41;1774500;79;21476;-64
2021/10/23 09:48:48;;;;;;;3.50;3.20;;;;;;;20.93;39.78;99652.35;1774989;79;21016;-62
2021/10/23 09:51:31;;;;;;;2.92;2.65;;;;;;;20.94;39.76;99650.77;1772363;78;21519;-63
2021/10/23 09:54:04;;;;;;;3.00;2.70;;;;;;;20.99;39.72;99648.69;1772477;79;21493;-64
2021/10/23 09:56:34;;;;;;;3.33;2.50;;;;;;;21.03;39.57;99654.44;1786686;78;21077;-72
2021/10/23 09:59:07;;;;;;;3.55;2.77;;;;;;;21.07;39.54;99646.96;1766574;80;21068;-72
2021/10/23 10:01:40;;;;;;;3.00;2.50;;;;;;;21.10;39.59;99647.84;1738081;80;21509;-71
2021/10/23 10:04:07;;;;;;;3.25;2.95;;;;;;;21.12;39.68;99654.36;1771020;79;21529;-71
2021/10/23 10:06:36;;;;;;;3.65;2.72;;;;;;;21.13;39.71;99650.58;1776750;80;22000;-72
2021/10/23 10:09:05;;;;;;;2.65;2.33;;;;;;;21.17;39.71;99650.39;1765761;80;21049;-72
2021/10/23 10:11:33;;;;;;;4.33;3.20;;;;;;;21.21;39.53;99652.39;1770378;79;21122;-73
2021/10/23 10:14:00;;;;;;;3.37;2.62;;;;;;;21.28;39.39;99656.29;1765378;79;21069;-73
2021/10/23 10:16:29;;;;;;;3.58;2.87;;;;;;;21.35;39.45;99648.88;1767311;80;21105;-71
2021/10/23 10:18:55;;;;;;;2.47;2.25;;;;;;;21.46;39.48;99655.84;1766528;80;21159;-71
2021/10/23 10:21:23;;;;;;;3.10;2.80;;;;;;;21.52;39.37;99655.70;1746906;80;21041;-71
2021/10/23 10:23:53;;;;;;;3.45;2.50;;;;;;;21.60;39.33;99663.42;1822660;78;21013;-71
2021/10/23 10:26:32;;;;;;;2.70;2.30;;;;;;;21.69;39.21;99672.48;1746595;78;21123;-72
2021/10/23 10:29:25;;;;;;;3.00;2.55;;;;;;;21.76;39.15;99676.67;1789155;80;21656;-71
2021/10/23 10:32:14;;;;;;;2.52;2.33;;;;;;;21.85;39.17;99662.78;1755344;79;20986;-70
2021/10/23 10:42:59;;;;;;;2.80;2.35;;;;;;;22.06;39.04;99670.16;1791782;79;21007;-72
2021/10/23 10:45:46;;;;;;;3.27;2.60;;;;;;;22.15;39.06;99667.31;1813860;78;21127;-71
2021/10/23 10:48:34;;;;;;;3.30;2.75;;;;;;;22.24;38.91;99665.03;1794355;78;21102;-73
2021/10/23 10:51:08;;;;;;;3.27;2.47;;;;;;;22.34;38.88;99666.56;1795906;78;20988;-71
2021/10/23 10:53:45;;;;;;;3.30;2.83;;;;;;;22.45;38.79;99670.80;1790569;78;21834;-70
2021/10/23 10:56:13;;;;;;;3.75;2.60;;;;;;;22.54;38.70;99675.53;1797223;78;21095;-72
2021/10/23 10:58:58;;;;;;;2.85;2.50;;;;;;;22.64;38.61;99670.80;1775915;78;21788;-70
2021/10/23 11:01:30;;;;;;;2.50;2.30;;;;;;;22.76;38.51;99676.11;1772474;78;21038;-71
2021/10/23 11:04:08;;;;;;;3.00;2.50;;;;;;;22.86;38.42;99681.65;1787627;78;21065;-71
2021/10/23 11:06:49;;;;;;;2.75;2.55;;;;;;;22.90;38.41;99681.97;1776099;78;21017;-70
2021/10/23 11:09:25;;;;;;;2.98;2.22;;;;;;;22.93;38.40;99689.61;1774448;78;21016;-70
2021/10/23 11:11:57;;;;;;;3.08;2.55;;;;;;;22.91;38.41;99686.33;1793543;79;21999;-71
2021/10/23 11:14:35;;;;;;;3.47;2.40;;;;;;;22.88;38.43;99692.23;1754348;78;21106;-70
2021/10/23 11:17:14;;;;;;;3.58;2.65;;;;;;;22.83;38.44;99693.00;1775499;78;21530;-70
2021/10/23 11:19:51;;;;;;;2.83;2.20;;;;;;;22.82;38.48;99698.12;1804116;78;21044;-71
2021/10/23 11:22:33;;;;;;;2.45;2.15;;;;;;;22.78;38.49;99698.34;1769993;78;21088;-71
2021/10/23 11:25:08;;;;;;;2.75;2.55;;;;;;;22.76;38.54;99704.54;1771287;78;21073;-73
2021/10/23 11:27:45;;;;;;;3.60;1.98;;;;;;;22.75;38.60;99697.47;1774023;78;21070;-71
2021/10/23 11:30:22;;;;;;;2.65;2.17;;;;;;;22.76;38.56;99701.83;1775737;78;21549;-72
2021/10/23 11:33:01;;;;;;;2.45;2.17;;;;;;;22.68;38.57;99688.19;1763670;78;22066;-72
2021/10/23 11:35:32;;;;;;;2.45;2.25;;;;;;;22.79;38.57;99698.61;1767542;78;20996;-72
2021/10/23 11:38:02;;;;;;;2.60;2.30;;;;;;;22.84;38.51;99711.42;1768825;80;21139;-72
2021/10/23 11:40:29;;;;;;;3.10;2.20;;;;;;;22.87;38.43;99710.39;1758445;80;21209;-73
2021/10/23 11:42:55;;;;;;;4.28;2.30;;;;;;;22.93;38.39;99705.86;1771258;79;21057;-72
2021/10/23 11:45:35;;;;;;;2.30;2.10;;;;;;;23.01;38.31;99710.02;1766951;78;21072;-70
2021/10/23 11:48:08;;;;;;;2.40;2.00;;;;;;;23.11;38.20;99715.59;1767662;79;21659;-70
2021/10/23 11:50:43;;;;;;;2.62;2.20;;;;;;;23.23;38.06;99701.92;1766745;78;21164;-70